Etusivu
METAR-TAF:

METAR-TAF

Lentoasemat :

Van, Turkki

Leveyspiiri: 38-27N, Pituuspiiri: 043-19E, korkeus merenpinnasta: 1667 m

Tämänhetkinen sää

Tämä raportti tehtiin 1 tunti ja 11 minuuttia sitten, kello 00.50 UTC
Tuuli 6 kn idästä
Lämpötila 0°C
Kosteus 59%
Ilmanpaine 1028 hPa
Näkyvyys 10 km tai enemmän
Hajanaisia pilviä 3500 ft:n korkeudessa
Hajonneita pilviä 8000 ft:n korkeudessa

METAR: LTCI 280050Z 08006KT 9999 SCT035 BKN080 00/M07 Q1028 NOSIG

Aika: 05:01 (02:01 UTC)

Sääennuste

Tämä raportti tehtiin 3 tuntia ja 21 minuuttia sitten, kello 22.40 UTC
Ennuste voimassa 28. päivästä klo 00 UTC - 28. päivään klo 09 UTC
Tuuli 8 kn idästä
Näkyvyys 10 km tai enemmän
Hajanaisia pilviä 3500 ft:n korkeudessa
Hajonneita pilviä 7000 ft:n korkeudessa
Tulossa
28. päivästä klo 04 UTC - 28. päivään klo 06 UTC
Tuuli 10 kn lännestä

TAF: LTCI 272240Z 2800/2809 09008KT 9999 SCT035 BKN070 BECMG 2804/2806 28010KT

Säähavainnot ja -ennusteet yli 4000 lentoasemalta (METAR- ja TAF-raportit).

Käytössä olevat sääasemat on merkitty karttaan keltaisilla ja punaisilla pisteillä.

Aseta hiiri pisteen päälle nähdäksesi sääaseman nimen.

Klikkaa sitten nähdäksesi säähavainnot ja -ennusteet.

Kartan vaihtaminen: klikkaa mustalla rastilla varustettuja vihreitä pisteitä, niin voit zoomata sisään; viivalla varustettua vihreää pistettä, niin voit zoomata ulos tai vihreitä nuolia, niin pääset viereisille kartoille.


METAR-TAF: